Terminal Aerodrome Forecast
Issued by NWS

Home | Current Version | Previous Version | Text Only | Print | Product List | Glossary On
Versions: 1 2 3 4 5 6 7 8 9 10 11 12 13 14 15 16
000
FTUS46 KPQR 231946 AAA
TAFONP
TAF AMD
KONP 231946Z 2320/2418 34014G23KT 6SM BR OVC008
     FM240100 35020G28KT 3SM -DZ BR OVC007
     FM240700 32020G27KT P6SM OVC012
     FM241100 03005KT P6SM SCT006 BKN015=

USA.gov is the U.S. government's official web portal to all federal, state and local government web resources and services.